Time;durP1;ratioP1;P1;durP2;ratioP2;P2;SDS_P1;SDS_P2;PMS_P1;PMS_P2;Temp;Humidity;BMP_temperature;BMP_pressure;BME280_temperature;BME280_humidity;BME280_pressure;Samples;Min_cycle;Max_cycle;Signal;HPM_P1;HPM_P2
2022/08/27 00:00:49;;;;;;;8.25;4.20;;;20.20;99.90;;;;;;4978384;28;20250;-83
2022/08/27 00:03:16;;;;;;;7.28;5.05;;;20.10;99.90;;;;;;4977491;28;20192;-83
2022/08/27 00:05:43;;;;;;;10.05;5.10;;;20.00;99.90;;;;;;4978406;28;20567;-83
2022/08/27 00:08:13;;;;;;;6.05;4.97;;;20.00;99.90;;;;;;4995854;28;20171;-82
2022/08/27 00:10:40;;;;;;;8.57;5.10;;;20.00;99.90;;;;;;4976999;28;20610;-83
2022/08/27 00:13:05;;;;;;;7.00;5.47;;;20.00;99.90;;;;;;4991275;28;20224;-82
2022/08/27 00:15:32;;;;;;;11.88;7.15;;;20.10;99.90;;;;;;4958912;28;20530;-83
2022/08/27 00:17:58;;;;;;;11.98;7.07;;;20.10;99.90;;;;;;4991348;28;20545;-83
2022/08/27 00:20:25;;;;;;;10.07;6.20;;;20.10;99.90;;;;;;4977944;28;20180;-82
2022/08/27 00:22:52;;;;;;;11.10;8.40;;;20.20;99.90;;;;;;4995403;28;20203;-82
2022/08/27 00:25:18;;;;;;;13.25;8.27;;;20.20;99.90;;;;;;4977496;28;20180;-83
2022/08/27 00:27:45;;;;;;;12.20;8.15;;;20.20;99.90;;;;;;4976132;28;20181;-83
2022/08/27 00:30:13;;;;;;;11.27;7.78;;;20.20;99.90;;;;;;4975884;28;20219;-83
2022/08/27 00:32:40;;;;;;;15.52;9.25;;;20.30;99.90;;;;;;4958659;28;20180;-83
2022/08/27 00:35:07;;;;;;;11.68;8.68;;;20.30;99.90;;;;;;4958321;28;20694;-83
2022/08/27 00:37:34;;;;;;;12.50;8.73;;;20.30;99.90;;;;;;4975876;28;20255;-83
2022/08/27 00:40:00;;;;;;;12.45;8.98;;;20.30;99.90;;;;;;4975688;28;20179;-84
2022/08/27 00:42:25;;;;;;;16.73;9.65;;;20.30;99.90;;;;;;4958212;28;20263;-84
2022/08/27 00:44:51;;;;;;;17.38;10.23;;;20.30;99.90;;;;;;4972039;28;20274;-82
2022/08/27 00:47:23;;;;;;;15.73;9.32;;;20.30;99.90;;;;;;4977604;28;20180;-83
2022/08/27 00:49:53;;;;;;;14.00;9.15;;;20.30;99.90;;;;;;4994941;28;20574;-83
2022/08/27 00:52:26;;;;;;;13.90;8.95;;;20.30;99.90;;;;;;4995051;28;20179;-82
2022/08/27 00:54:58;;;;;;;17.42;9.23;;;20.30;99.90;;;;;;4994864;28;20256;-83
2022/08/27 00:57:23;;;;;;;15.10;9.57;;;20.30;99.90;;;;;;4977227;28;20571;-83
2022/08/27 00:59:49;;;;;;;22.17;10.57;;;20.30;99.90;;;;;;4994827;28;20244;-83
2022/08/27 01:02:18;;;;;;;12.90;9.55;;;20.30;99.90;;;;;;4993921;28;20179;-84
2022/08/27 01:04:49;;;;;;;17.67;10.45;;;20.30;99.90;;;;;;4977477;28;20759;-83
2022/08/27 01:07:16;;;;;;;17.67;10.25;;;20.30;99.90;;;;;;4994859;28;20180;-84
2022/08/27 01:09:43;;;;;;;17.17;10.38;;;20.30;99.90;;;;;;4977296;28;20571;-83
2022/08/27 01:12:10;;;;;;;15.75;10.38;;;20.40;99.90;;;;;;4973271;28;20240;-84
2022/08/27 01:14:37;;;;;;;16.20;10.65;;;20.30;99.90;;;;;;4975138;28;20234;-84
2022/08/27 01:17:06;;;;;;;19.30;11.02;;;20.30;99.90;;;;;;4973526;28;20216;-84
2022/08/27 01:20:00;;;;;;;19.30;10.18;;;20.40;99.90;;;;;;4973932;28;20211;-83
2022/08/27 01:22:47;;;;;;;15.63;10.45;;;20.40;99.90;;;;;;4973994;28;20327;-83
2022/08/27 01:25:16;;;;;;;20.98;10.30;;;20.30;99.90;;;;;;4973778;28;20693;-85
2022/08/27 01:27:44;;;;;;;14.98;9.43;;;20.30;99.90;;;;;;4957199;28;20191;-84
2022/08/27 01:30:12;;;;;;;17.00;10.52;;;20.30;99.90;;;;;;4958319;28;20180;-86
2022/08/27 01:32:38;;;;;;;21.85;11.15;;;20.30;99.90;;;;;;4973823;28;20623;-85
2022/08/27 01:35:07;;;;;;;16.38;11.27;;;20.30;99.90;;;;;;4973682;28;20227;-85
2022/08/27 01:37:34;;;;;;;16.77;11.07;;;20.30;99.90;;;;;;4975022;28;20658;-85
2022/08/27 01:40:00;;;;;;;21.52;11.18;;;20.30;99.90;;;;;;4975236;28;20191;-85
2022/08/27 01:42:32;;;;;;;15.73;10.13;;;20.30;99.90;;;;;;4974260;28;20179;-86
2022/08/27 01:45:07;;;;;;;21.67;12.23;;;20.20;99.90;;;;;;4973256;28;20173;-85
2022/08/27 01:47:34;;;;;;;19.05;11.88;;;20.20;99.90;;;;;;4973248;28;20188;-85
2022/08/27 01:50:01;;;;;;;16.15;11.60;;;20.20;99.90;;;;;;4973748;28;20220;-85
2022/08/27 01:52:29;;;;;;;20.70;12.35;;;20.20;99.90;;;;;;4973761;28;20177;-85
2022/08/27 01:54:55;;;;;;;18.13;12.07;;;20.10;99.90;;;;;;4973836;28;20188;-85
2022/08/27 01:57:21;;;;;;;22.00;12.93;;;20.10;99.90;;;;;;4978925;28;20638;-88
2022/08/27 01:59:47;;;;;;;17.70;13.05;;;20.00;99.90;;;;;;4979277;28;20200;-85
2022/08/27 02:02:15;;;;;;;19.33;12.15;;;20.00;99.90;;;;;;4978805;28;20180;-87
2022/08/27 02:04:44;;;;;;;22.52;12.88;;;20.00;99.90;;;;;;4977773;28;20230;-87
2022/08/27 02:07:13;;;;;;;20.40;13.25;;;20.10;99.90;;;;;;4978034;28;20180;-87
2022/08/27 02:09:38;;;;;;;18.38;11.88;;;20.00;99.90;;;;;;4978053;28;20280;-86
2022/08/27 02:12:04;;;;;;;16.73;11.20;;;20.10;99.90;;;;;;4980717;28;20259;-87
2022/08/27 02:14:30;;;;;;;22.88;12.82;;;20.00;99.90;;;;;;4966643;28;20188;-88
2022/08/27 02:16:57;;;;;;;21.58;13.40;;;20.00;99.90;;;;;;4978664;28;20713;-86
2022/08/27 02:19:23;;;;;;;22.70;13.05;;;20.00;99.90;;;;;;4961923;28;20320;-87
2022/08/27 02:21:49;;;;;;;18.33;12.60;;;20.00;99.90;;;;;;4980706;28;20271;-87
2022/08/27 02:24:15;;;;;;;21.83;12.73;;;20.00;99.90;;;;;;4980444;28;20222;-85
2022/08/27 02:26:41;;;;;;;17.23;11.50;;;20.00;99.90;;;;;;4980453;28;20223;-84
2022/08/27 02:29:07;;;;;;;20.98;11.90;;;19.90;99.90;;;;;;4980436;28;20212;-88
2022/08/27 02:31:33;;;;;;;16.40;10.93;;;19.90;99.90;;;;;;4998135;28;20643;-87
2022/08/27 02:33:59;;;;;;;18.33;11.85;;;19.90;99.90;;;;;;4980437;28;20176;-85
2022/08/27 02:36:25;;;;;;;15.57;10.63;;;19.90;99.90;;;;;;4984831;28;20286;-87
2022/08/27 02:38:51;;;;;;;19.92;12.13;;;19.90;99.90;;;;;;4977636;28;20515;-87
2022/08/27 02:41:17;;;;;;;17.27;11.25;;;19.90;99.90;;;;;;4963674;28;20223;-84
2022/08/27 02:43:44;;;;;;;22.05;11.35;;;19.90;99.90;;;;;;4971780;28;20579;-86
2022/08/27 02:46:11;;;;;;;16.15;11.20;;;19.90;99.90;;;;;;4975124;28;20263;-88
2022/08/27 02:48:38;;;;;;;17.92;11.25;;;19.80;99.90;;;;;;4997986;28;20195;-89
2022/08/27 02:51:05;;;;;;;19.60;11.82;;;19.80;99.90;;;;;;4980767;28;20180;-90
2022/08/27 02:53:31;;;;;;;21.08;11.73;;;19.80;99.90;;;;;;4981208;28;20179;-88
2022/08/27 02:55:57;;;;;;;17.17;10.70;;;19.90;99.90;;;;;;4998170;28;20214;-89
2022/08/27 02:58:23;;;;;;;16.65;11.00;;;19.90;99.90;;;;;;4980965;28;20184;-90
2022/08/27 03:00:49;;;;;;;19.20;11.05;;;19.90;99.90;;;;;;4997963;28;20580;-85
2022/08/27 03:03:15;;;;;;;18.10;11.02;;;19.90;99.90;;;;;;4995860;28;20266;-90
2022/08/27 03:05:41;;;;;;;16.52;11.20;;;19.90;99.90;;;;;;5010272;28;20673;-90
2022/08/27 03:08:07;;;;;;;20.52;12.75;;;19.90;99.90;;;;;;4980463;28;20184;-88
2022/08/27 03:10:34;;;;;;;18.95;11.50;;;19.90;99.90;;;;;;4997476;28;20163;-89
2022/08/27 03:13:00;;;;;;;14.70;10.13;;;19.90;99.90;;;;;;4978918;28;20318;-91
2022/08/27 03:15:26;;;;;;;15.50;10.80;;;19.80;99.90;;;;;;4994679;28;20219;-89
2022/08/27 03:20:39;;;;;;;19.25;10.85;;;19.80;99.90;;;;;;4998107;28;20214;-88
2022/08/27 03:23:08;;;;;;;16.58;11.20;;;19.80;99.90;;;;;;4980178;28;20190;-88
2022/08/27 03:25:33;;;;;;;24.02;11.93;;;19.80;99.90;;;;;;4979888;28;20187;-87
2022/08/27 03:28:03;;;;;;;16.40;10.55;;;19.80;99.90;;;;;;4996929;28;20610;-90
2022/08/27 03:30:30;;;;;;;19.17;11.73;;;19.80;99.90;;;;;;4999308;28;20214;-89
2022/08/27 03:32:56;;;;;;;17.92;10.70;;;19.60;99.90;;;;;;4998183;28;20206;-87
2022/08/27 03:35:22;;;;;;;17.85;10.95;;;19.70;99.90;;;;;;4999582;28;20649;-90
2022/08/27 03:37:49;;;;;;;23.33;10.90;;;19.60;99.90;;;;;;5016702;28;20262;-88
2022/08/27 03:40:15;;;;;;;17.05;11.02;;;19.70;99.90;;;;;;4999664;28;20172;-88
2022/08/27 03:42:42;;;;;;;18.17;11.27;;;19.70;99.90;;;;;;5016497;28;20184;-87
2022/08/27 03:45:08;;;;;;;19.55;11.25;;;19.70;99.90;;;;;;5016588;28;20167;-87
2022/08/27 03:47:36;;;;;;;20.17;11.30;;;19.60;99.90;;;;;;4999179;28;20201;-87
2022/08/27 03:50:04;;;;;;;18.35;10.65;;;19.70;99.90;;;;;;5016458;28;20257;-86
2022/08/27 03:52:32;;;;;;;18.13;10.38;;;19.60;99.90;;;;;;4998885;28;20184;-87
2022/08/27 03:54:58;;;;;;;16.15;10.93;;;19.60;99.90;;;;;;4998779;28;20179;-88
2022/08/27 03:57:26;;;;;;;18.75;10.48;;;19.60;99.90;;;;;;5016532;28;20241;-87
2022/08/27 03:59:52;;;;;;;15.57;9.65;;;19.60;99.90;;;;;;4987994;28;20304;-84
2022/08/27 04:02:18;;;;;;;19.75;10.10;;;19.60;99.90;;;;;;4968340;28;20180;-87
2022/08/27 04:04:44;;;;;;;14.77;9.00;;;19.60;99.90;;;;;;4996567;28;20607;-88
2022/08/27 04:07:10;;;;;;;18.45;9.80;;;19.60;99.90;;;;;;4979382;28;20191;-90
2022/08/27 04:09:36;;;;;;;20.88;10.38;;;19.60;99.90;;;;;;4983917;28;20605;-91
2022/08/27 04:12:02;;;;;;;20.27;9.82;;;19.60;99.90;;;;;;4998279;28;20185;-89
2022/08/27 04:14:28;;;;;;;16.85;9.55;;;19.60;99.90;;;;;;4998266;28;20240;-88
2022/08/27 04:16:55;;;;;;;18.73;8.98;;;19.50;99.90;;;;;;4998455;28;20211;-86
2022/08/27 04:19:26;;;;;;;21.42;10.27;;;19.50;99.90;;;;;;4997639;28;20553;-87
2022/08/27 04:21:52;;;;;;;18.20;8.70;;;19.50;99.90;;;;;;4998187;28;20633;-87
2022/08/27 04:24:17;;;;;;;19.83;8.90;;;19.50;99.90;;;;;;4997896;28;20182;-85
2022/08/27 04:26:46;;;;;;;29.65;10.45;;;19.50;99.90;;;;;;4981411;28;20716;-87
2022/08/27 04:29:12;;;;;;;23.98;9.93;;;19.50;99.90;;;;;;4978700;28;20606;-87
2022/08/27 04:31:37;;;;;;;20.40;9.05;;;19.50;99.90;;;;;;4995566;28;20182;-87
2022/08/27 04:34:06;;;;;;;15.32;8.82;;;19.50;99.90;;;;;;4978498;28;20179;-87
2022/08/27 04:36:32;;;;;;;18.40;8.95;;;19.50;99.90;;;;;;4978247;28;20223;-87
2022/08/27 04:38:57;;;;;;;18.38;8.70;;;19.50;99.90;;;;;;4978087;28;20513;-87
2022/08/27 04:41:26;;;;;;;24.15;9.73;;;19.50;99.90;;;;;;4977479;28;20192;-86
2022/08/27 04:43:57;;;;;;;19.88;8.95;;;19.40;99.90;;;;;;4978192;28;20190;-86
2022/08/27 04:46:28;;;;;;;15.98;9.10;;;19.40;99.90;;;;;;4995376;28;20211;-86
2022/08/27 04:48:57;;;;;;;18.10;9.35;;;19.40;99.90;;;;;;4995487;28;20597;-88
2022/08/27 04:51:23;;;;;;;16.63;8.15;;;19.30;99.90;;;;;;4977736;28;20222;-85
2022/08/27 04:53:49;;;;;;;20.27;8.43;;;19.30;99.90;;;;;;4977871;28;20203;-86
2022/08/27 04:56:21;;;;;;;13.73;7.60;;;19.40;99.90;;;;;;4977740;28;20231;-84
2022/08/27 04:58:49;;;;;;;11.80;7.18;;;19.40;99.90;;;;;;4977600;28;20615;-86
2022/08/27 05:01:17;;;;;;;15.23;7.80;;;19.30;99.90;;;;;;4994581;28;21014;-85
2022/08/27 05:03:43;;;;;;;13.68;7.70;;;19.40;99.90;;;;;;4977924;28;20190;-86
2022/08/27 05:06:09;;;;;;;15.23;7.55;;;19.30;99.90;;;;;;4977571;28;20262;-85
2022/08/27 05:08:35;;;;;;;13.68;7.15;;;19.40;99.90;;;;;;4977734;28;20937;-85
2022/08/27 05:11:01;;;;;;;16.80;7.95;;;19.40;99.90;;;;;;4977292;28;20172;-86
2022/08/27 05:13:28;;;;;;;12.65;7.35;;;19.40;99.90;;;;;;4977382;28;20259;-86
2022/08/27 05:15:59;;;;;;;15.32;8.02;;;19.40;99.90;;;;;;4977500;28;20241;-86
2022/08/27 05:18:26;;;;;;;17.50;8.95;;;19.30;99.90;;;;;;4994552;28;20545;-86
2022/08/27 05:20:52;;;;;;;14.07;7.57;;;19.30;99.90;;;;;;4977530;28;20183;-85
2022/08/27 05:23:19;;;;;;;18.67;7.93;;;19.30;99.90;;;;;;4977055;28;20180;-85
2022/08/27 05:25:47;;;;;;;16.92;8.23;;;19.30;99.90;;;;;;4976741;28;20266;-84
2022/08/27 05:28:15;;;;;;;16.75;7.70;;;19.20;99.90;;;;;;4994591;28;20167;-85
2022/08/27 05:30:44;;;;;;;13.95;7.60;;;19.20;99.90;;;;;;4976887;28;20218;-84
2022/08/27 05:33:11;;;;;;;14.48;7.40;;;19.30;99.90;;;;;;4994474;28;20176;-85
2022/08/27 05:35:42;;;;;;;20.40;8.32;;;19.20;99.90;;;;;;4994498;28;20242;-86
2022/08/27 05:38:09;;;;;;;12.07;6.47;;;19.20;99.90;;;;;;4964621;28;20180;-86
2022/08/27 05:40:39;;;;;;;15.38;7.80;;;19.30;99.90;;;;;;4957617;28;20176;-85
2022/08/27 05:43:05;;;;;;;12.45;6.75;;;19.20;99.90;;;;;;4975069;28;20195;-85
2022/08/27 05:45:32;;;;;;;9.85;6.28;;;19.20;99.90;;;;;;4957644;28;20235;-84
2022/08/27 05:47:58;;;;;;;12.25;6.72;;;19.20;99.90;;;;;;4968220;28;20184;-85
2022/08/27 05:50:25;;;;;;;14.73;7.30;;;19.30;99.90;;;;;;4994436;28;20301;-85
2022/08/27 05:52:51;;;;;;;11.13;6.40;;;19.30;99.90;;;;;;4976514;28;20666;-84
2022/08/27 05:55:18;;;;;;;11.02;5.85;;;19.20;99.90;;;;;;4976348;28;20210;-85
2022/08/27 05:57:44;;;;;;;15.23;6.70;;;19.30;99.90;;;;;;4977420;28;20180;-85
2022/08/27 06:02:54;;;;;;;13.40;7.32;;;19.30;99.90;;;;;;4994862;28;20254;-86
2022/08/27 06:05:20;;;;;;;17.77;7.28;;;19.30;99.90;;;;;;4994413;28;20255;-85
2022/08/27 06:07:46;;;;;;;14.10;7.05;;;19.30;99.90;;;;;;4976851;28;20191;-85
2022/08/27 06:10:12;;;;;;;15.60;6.47;;;19.20;99.90;;;;;;4976672;28;20184;-84
2022/08/27 06:12:38;;;;;;;15.50;6.20;;;19.20;99.90;;;;;;4976746;28;20649;-85
2022/08/27 06:15:04;;;;;;;15.45;6.78;;;19.20;99.90;;;;;;4976880;28;20188;-86
2022/08/27 06:17:30;;;;;;;16.75;6.20;;;19.30;99.90;;;;;;4976393;28;20207;-85
2022/08/27 06:19:56;;;;;;;12.07;6.32;;;19.20;99.90;;;;;;4994288;28;20175;-85
2022/08/27 06:22:22;;;;;;;14.95;5.78;;;19.20;99.90;;;;;;4994421;28;20514;-84
2022/08/27 06:24:48;;;;;;;11.95;6.93;;;19.20;99.90;;;;;;4993917;28;20168;-84
2022/08/27 06:27:16;;;;;;;10.63;6.05;;;19.20;99.90;;;;;;4994143;28;20207;-84
2022/08/27 06:29:43;;;;;;;17.10;5.88;;;19.20;99.90;;;;;;4994133;28;20188;-86
2022/08/27 06:32:10;;;;;;;9.73;6.03;;;19.30;99.90;;;;;;4976223;28;20180;-84
2022/08/27 06:34:37;;;;;;;13.00;6.03;;;19.30;99.90;;;;;;4976510;28;20184;-84
2022/08/27 06:37:03;;;;;;;12.13;6.43;;;19.30;99.90;;;;;;4973423;28;20267;-84
2022/08/27 06:39:30;;;;;;;13.75;6.18;;;19.30;99.90;;;;;;4993933;28;20176;-83
2022/08/27 06:41:56;;;;;;;14.07;6.13;;;19.30;99.90;;;;;;4977206;28;20265;-84
2022/08/27 06:44:23;;;;;;;19.92;6.38;;;19.30;99.90;;;;;;4979987;28;20175;-84
2022/08/27 06:46:50;;;;;;;12.90;6.13;;;19.30;99.90;;;;;;4997122;28;20595;-84
2022/08/27 06:49:16;;;;;;;15.15;6.40;;;19.30;99.90;;;;;;4997156;28;20179;-83
2022/08/27 06:51:45;;;;;;;13.35;5.93;;;19.30;99.90;;;;;;4997400;28;20172;-86
2022/08/27 06:54:12;;;;;;;10.50;5.50;;;19.30;99.90;;;;;;4979761;28;20215;-82
2022/08/27 06:56:40;;;;;;;11.18;5.78;;;19.30;99.90;;;;;;4979618;28;20298;-84
2022/08/27 06:59:10;;;;;;;12.45;5.70;;;19.40;99.90;;;;;;4997292;28;20199;-82
2022/08/27 07:01:38;;;;;;;9.77;5.38;;;19.40;99.90;;;;;;4996569;28;20179;-83
2022/08/27 07:04:08;;;;;;;11.85;5.50;;;19.40;99.90;;;;;;4979785;28;20271;-85
2022/08/27 07:06:35;;;;;;;10.57;5.72;;;19.50;99.90;;;;;;4979545;28;20184;-86
2022/08/27 07:09:01;;;;;;;14.63;5.80;;;19.50;99.90;;;;;;4997086;28;20255;-82
2022/08/27 07:11:30;;;;;;;12.27;5.35;;;19.50;99.90;;;;;;4979590;28;20176;-86
2022/08/27 07:13:56;;;;;;;13.40;6.20;;;19.60;99.90;;;;;;4979303;28;20228;-82
2022/08/27 07:16:24;;;;;;;14.43;6.18;;;19.60;99.90;;;;;;4978154;28;20230;-86
2022/08/27 07:18:52;;;;;;;16.42;6.28;;;19.60;99.90;;;;;;4979272;28;20523;-84
2022/08/27 07:21:21;;;;;;;11.73;5.63;;;19.50;99.90;;;;;;4996850;28;20164;-84
2022/08/27 07:23:49;;;;;;;13.45;6.07;;;19.50;99.90;;;;;;4995085;28;20179;-83
2022/08/27 07:26:16;;;;;;;11.88;5.90;;;19.50;99.90;;;;;;4996811;28;20187;-84
2022/08/27 07:28:43;;;;;;;15.43;6.38;;;19.50;99.90;;;;;;4996684;28;20256;-86
2022/08/27 07:31:12;;;;;;;18.23;5.22;;;19.50;99.90;;;;;;4979400;28;20319;-85
2022/08/27 07:33:38;;;;;;;9.60;5.10;;;19.60;99.90;;;;;;4995574;28;20322;-85
2022/08/27 07:36:05;;;;;;;13.38;5.32;;;19.60;99.90;;;;;;4996590;28;20215;-85
2022/08/27 07:38:32;;;;;;;15.88;6.10;;;19.70;99.90;;;;;;4978487;28;20783;-84
2022/08/27 07:40:58;;;;;;;12.15;6.18;;;19.70;99.90;;;;;;4996555;28;20172;-84
2022/08/27 07:46:08;;;;;;;13.75;6.93;;;19.70;99.90;;;;;;4996637;28;20186;-86
2022/08/27 07:48:34;;;;;;;16.92;6.63;;;19.70;99.90;;;;;;4994319;28;20606;-84
2022/08/27 07:51:04;;;;;;;16.73;6.15;;;19.70;99.90;;;;;;4980468;28;20607;-85
2022/08/27 07:53:33;;;;;;;18.98;7.63;;;19.70;99.90;;;;;;4995208;28;20172;-84
2022/08/27 07:56:04;;;;;;;17.05;7.13;;;19.70;99.90;;;;;;4996135;28;20211;-86
2022/08/27 07:58:30;;;;;;;20.55;6.82;;;19.70;99.90;;;;;;4978978;28;20266;-84
2022/08/27 08:00:58;;;;;;;17.95;7.57;;;19.70;99.90;;;;;;4978595;28;20186;-86
2022/08/27 08:03:23;;;;;;;18.95;6.82;;;19.80;99.90;;;;;;4995608;28;20180;-85
2022/08/27 08:05:52;;;;;;;13.55;6.25;;;19.90;99.90;;;;;;4978884;28;20652;-87
2022/08/27 08:08:18;;;;;;;22.15;7.97;;;19.90;99.90;;;;;;4984096;28;20180;-85
2022/08/27 08:10:49;;;;;;;13.15;6.05;;;19.90;99.90;;;;;;4959311;28;20181;-87
2022/08/27 08:13:18;;;;;;;18.10;6.85;;;20.00;99.90;;;;;;4956367;28;20244;-85
2022/08/27 08:15:45;;;;;;;15.65;6.20;;;20.00;99.90;;;;;;4957323;28;20228;-86
2022/08/27 08:18:12;;;;;;;16.40;7.53;;;20.00;99.90;;;;;;4957150;28;20267;-86
2022/08/27 08:20:38;;;;;;;12.77;7.50;;;20.00;99.90;;;;;;4956739;28;20177;-87
2022/08/27 08:23:05;;;;;;;17.40;7.07;;;20.00;99.90;;;;;;4958703;28;20645;-87
2022/08/27 08:25:30;;;;;;;17.92;7.55;;;20.00;99.90;;;;;;4970209;28;20192;-88
2022/08/27 08:27:56;;;;;;;16.98;7.13;;;20.10;99.90;;;;;;4967673;28;20191;-85
2022/08/27 08:30:23;;;;;;;15.07;6.35;;;20.10;99.90;;;;;;4974563;28;20243;-86
2022/08/27 08:32:49;;;;;;;14.88;6.70;;;20.10;99.90;;;;;;4976156;28;20255;-84
2022/08/27 08:35:15;;;;;;;16.27;7.07;;;20.10;99.90;;;;;;4974587;28;20706;-84
2022/08/27 08:37:44;;;;;;;16.95;6.88;;;20.20;99.90;;;;;;4974983;28;20258;-85
2022/08/27 08:40:23;;;;;;;19.95;6.32;;;20.30;99.90;;;;;;4957431;28;20620;-85
2022/08/27 08:42:52;;;;;;;14.30;6.13;;;20.30;99.90;;;;;;4975669;28;20220;-83
2022/08/27 08:45:25;;;;;;;14.55;6.90;;;20.30;99.90;;;;;;4966946;28;20268;-88
2022/08/27 08:47:58;;;;;;;17.38;6.25;;;20.30;99.90;;;;;;4967997;28;20184;-86
2022/08/27 08:50:38;;;;;;;18.17;6.65;;;20.20;99.90;;;;;;4974352;28;20177;-86
2022/08/27 08:53:18;;;;;;;14.82;6.55;;;20.20;99.90;;;;;;4972379;28;20185;-86
2022/08/27 08:55:53;;;;;;;17.38;6.85;;;20.20;99.90;;;;;;4972466;28;20291;-86
2022/08/27 08:58:44;;;;;;;14.45;5.93;;;20.30;99.90;;;;;;4969812;28;20375;-84
2022/08/27 09:01:11;;;;;;;11.75;6.07;;;20.20;99.90;;;;;;4985687;28;20185;-85
2022/08/27 09:03:40;;;;;;;11.38;6.35;;;20.20;99.90;;;;;;4959301;28;20172;-85
2022/08/27 09:06:18;;;;;;;14.73;6.53;;;20.20;99.90;;;;;;4972678;28;20189;-85
2022/08/27 09:08:44;;;;;;;12.27;6.40;;;20.20;99.90;;;;;;4971097;28;20177;-87
2022/08/27 09:11:22;;;;;;;18.45;7.65;;;20.20;99.90;;;;;;4968578;28;20185;-84
2022/08/27 09:13:59;;;;;;;13.10;7.13;;;20.10;99.90;;;;;;4965512;28;20228;-84
2022/08/27 09:16:25;;;;;;;13.20;6.93;;;20.10;99.90;;;;;;4973909;28;20307;-85
2022/08/27 09:18:51;;;;;;;16.45;7.47;;;20.10;99.90;;;;;;4963778;28;20240;-83
2022/08/27 09:21:42;;;;;;;17.42;7.97;;;20.10;99.90;;;;;;4973764;28;20652;-86
2022/08/27 09:24:21;;;;;;;16.23;7.30;;;20.00;99.90;;;;;;4984066;28;20181;-85
2022/08/27 09:26:46;;;;;;;15.30;7.53;;;20.00;99.90;;;;;;4973992;28;20210;-86
2022/08/27 09:29:15;;;;;;;20.02;7.82;;;20.10;99.90;;;;;;4970247;28;20207;-86
2022/08/27 09:31:44;;;;;;;19.73;8.30;;;20.00;99.90;;;;;;4968143;28;20183;-86
2022/08/27 09:34:10;;;;;;;14.43;7.50;;;20.00;99.90;;;;;;4973222;28;20184;-86
2022/08/27 09:37:00;;;;;;;17.05;7.55;;;20.00;99.90;;;;;;4972496;28;20215;-85
2022/08/27 09:39:55;;;;;;;12.18;6.72;;;20.00;99.90;;;;;;4971900;28;20698;-86
2022/08/27 09:42:39;;;;;;;17.33;7.38;;;20.00;99.90;;;;;;4971736;28;20191;-85
2022/08/27 09:45:14;;;;;;;18.17;8.52;;;20.00;99.90;;;;;;4973560;28;20189;-85
2022/08/27 09:47:42;;;;;;;15.10;7.55;;;20.00;99.90;;;;;;4973361;28;20172;-86
2022/08/27 09:50:08;;;;;;;10.57;7.15;;;20.00;99.90;;;;;;4972516;28;20248;-86
2022/08/27 09:52:50;;;;;;;17.45;8.32;;;20.00;99.90;;;;;;4970431;28;20183;-85
2022/08/27 09:55:33;;;;;;;15.77;8.25;;;20.10;99.90;;;;;;4966817;28;20704;-85
2022/08/27 09:58:02;;;;;;;18.83;7.95;;;20.10;99.90;;;;;;4971630;28;20192;-86
2022/08/27 10:00:40;;;;;;;15.23;7.45;;;20.10;99.90;;;;;;4961675;28;20687;-85
2022/08/27 10:03:07;;;;;;;15.23;8.90;;;20.10;99.90;;;;;;4954587;28;20192;-84
2022/08/27 10:05:42;;;;;;;13.10;7.78;;;20.10;99.90;;;;;;4955408;28;20587;-85
2022/08/27 10:08:16;;;;;;;14.57;7.60;;;20.10;99.90;;;;;;4953896;28;20193;-86
2022/08/27 10:11:08;;;;;;;15.60;8.18;;;20.10;99.90;;;;;;4954350;28;20188;-85
2022/08/27 10:14:00;;;;;;;13.52;8.05;;;20.10;99.90;;;;;;4954734;28;20224;-86
2022/08/27 10:16:40;;;;;;;17.40;9.25;;;20.20;99.90;;;;;;4966220;28;20208;-85
2022/08/27 10:19:22;;;;;;;13.80;9.20;;;20.10;99.90;;;;;;4971871;28;20185;-84
2022/08/27 10:22:09;;;;;;;18.08;8.93;;;20.10;99.90;;;;;;4970956;28;20234;-86
2022/08/27 10:25:03;;;;;;;14.13;8.80;;;20.10;99.90;;;;;;4975154;28;20305;-83
2022/08/27 10:27:57;;;;;;;13.95;8.65;;;20.10;99.90;;;;;;4974485;28;20303;-85
2022/08/27 10:30:36;;;;;;;13.65;8.60;;;20.10;99.90;;;;;;4970002;28;20185;-86
2022/08/27 10:33:40;;;;;;;15.15;8.57;;;20.10;99.90;;;;;;4967765;28;20192;-85
2022/08/27 10:36:44;;;;;;;15.35;8.77;;;20.10;99.90;;;;;;4977128;28;20203;-84
2022/08/27 10:39:36;;;;;;;18.15;9.77;;;20.10;99.90;;;;;;4977051;28;20516;-86
2022/08/27 10:42:15;;;;;;;23.20;9.63;;;20.10;99.90;;;;;;4971512;28;20548;-85
2022/08/27 10:45:06;;;;;;;16.20;10.25;;;20.10;99.90;;;;;;4975484;28;20195;-85
2022/08/27 10:47:59;;;;;;;15.50;9.38;;;20.10;99.90;;;;;;4966856;28;20203;-85
2022/08/27 10:50:56;;;;;;;17.63;9.98;;;20.10;99.90;;;;;;4977337;28;20315;-85
2022/08/27 10:53:54;;;;;;;16.08;9.68;;;20.00;99.90;;;;;;4973929;28;20279;-84
2022/08/27 10:56:38;;;;;;;19.38;9.45;;;19.90;99.90;;;;;;4973871;28;20219;-85
2022/08/27 10:59:28;;;;;;;17.02;8.85;;;19.90;99.90;;;;;;4976675;28;20677;-85
2022/08/27 11:02:13;;;;;;;17.02;9.75;;;19.90;99.90;;;;;;4974330;28;20613;-85
2022/08/27 11:04:48;;;;;;;16.00;8.60;;;19.90;99.90;;;;;;4956816;28;20240;-84
2022/08/27 11:07:26;;;;;;;12.80;8.82;;;19.90;99.90;;;;;;4958483;28;20201;-83
2022/08/27 11:10:26;;;;;;;16.58;8.80;;;19.90;99.90;;;;;;4958752;28;20184;-82
2022/08/27 11:12:56;;;;;;;13.82;8.23;;;19.90;99.90;;;;;;4957053;28;20225;-87
2022/08/27 11:15:29;;;;;;;13.00;7.75;;;19.90;99.90;;;;;;4956570;28;20587;-85
2022/08/27 11:18:05;;;;;;;16.95;7.85;;;20.00;99.90;;;;;;4956544;28;20174;-85
2022/08/27 11:20:36;;;;;;;12.48;6.68;;;20.00;99.90;;;;;;4972896;28;20194;-84
2022/08/27 11:23:12;;;;;;;11.57;6.60;;;20.00;99.90;;;;;;4970728;28;20275;-85
2022/08/27 11:25:51;;;;;;;14.05;7.03;;;20.10;99.90;;;;;;4975888;28;20509;-88
2022/08/27 11:28:24;;;;;;;14.30;6.97;;;20.10;99.90;;;;;;4966463;28;20195;-85
2022/08/27 11:30:59;;;;;;;10.68;5.95;;;20.10;99.90;;;;;;4961795;28;20676;-84
2022/08/27 11:33:38;;;;;;;15.10;5.68;;;20.10;99.90;;;;;;4974452;28;20191;-86
2022/08/27 11:36:30;;;;;;;13.68;5.68;;;20.10;99.90;;;;;;4960391;28;20189;-84
2022/08/27 11:39:14;;;;;;;14.02;5.55;;;20.10;99.90;;;;;;4968557;28;20185;-84
2022/08/27 11:42:04;;;;;;;7.97;4.88;;;20.00;99.90;;;;;;4971793;28;20244;-86
2022/08/27 11:44:30;;;;;;;15.20;5.32;;;20.00;99.90;;;;;;4958663;28;20195;-85
2022/08/27 11:47:08;;;;;;;15.10;5.43;;;20.10;99.90;;;;;;4975466;28;20209;-87
2022/08/27 11:49:47;;;;;;;10.25;4.88;;;20.00;99.90;;;;;;4976891;28;20161;-87
2022/08/27 11:52:24;;;;;;;10.23;4.82;;;20.10;99.90;;;;;;4970713;28;20183;-86
2022/08/27 11:55:35;;;;;;;10.40;4.32;;;20.10;99.90;;;;;;4965150;28;20184;-86
2022/08/27 11:58:24;;;;;;;11.13;5.50;;;20.10;99.90;;;;;;4946682;28;20189;-82
2022/08/27 12:00:52;;;;;;;11.93;5.25;;;20.10;99.90;;;;;;4971818;28;20292;-84
2022/08/27 12:03:18;;;;;;;14.32;6.05;;;20.20;99.90;;;;;;4974071;28;20192;-86
2022/08/27 12:05:48;;;;;;;15.60;6.05;;;20.20;99.90;;;;;;4975557;28;20212;-86
2022/08/27 12:08:20;;;;;;;18.90;7.25;;;20.20;99.90;;;;;;4973631;28;20627;-86
2022/08/27 12:10:46;;;;;;;12.90;5.80;;;20.20;99.90;;;;;;4974239;28;20219;-86
2022/08/27 12:13:39;;;;;;;8.65;5.65;;;20.10;99.90;;;;;;4985243;28;20235;-85
2022/08/27 12:16:36;;;;;;;10.70;5.68;;;20.20;99.90;;;;;;4974043;28;20198;-85
2022/08/27 12:19:28;;;;;;;11.93;5.45;;;20.30;99.90;;;;;;4973298;28;20543;-86
2022/08/27 12:22:15;;;;;;;10.57;5.20;;;20.40;99.90;;;;;;4968195;28;20188;-85
2022/08/27 12:24:48;;;;;;;15.55;5.70;;;20.40;99.90;;;;;;4991949;28;20175;-84
2022/08/27 12:27:30;;;;;;;10.20;5.95;;;20.40;99.90;;;;;;4977314;28;20207;-84
2022/08/27 12:30:01;;;;;;;9.25;5.13;;;20.40;99.90;;;;;;4976504;28;20311;-84
2022/08/27 12:32:35;;;;;;;13.13;5.38;;;20.40;99.90;;;;;;4976728;28;20192;-85
2022/08/27 12:35:18;;;;;;;9.00;5.78;;;20.30;99.90;;;;;;4994619;28;20238;-85
2022/08/27 12:37:54;;;;;;;11.77;5.65;;;20.20;99.90;;;;;;4973498;28;20640;-85
2022/08/27 12:40:23;;;;;;;10.50;5.70;;;20.20;99.90;;;;;;4989633;28;20191;-86
2022/08/27 12:42:51;;;;;;;11.70;5.25;;;20.20;99.90;;;;;;4994135;28;20186;-84
2022/08/27 12:45:20;;;;;;;11.50;5.47;;;20.10;99.90;;;;;;4994280;28;20188;-85
2022/08/27 12:47:46;;;;;;;7.00;4.78;;;20.10;99.90;;;;;;4994419;28;20188;-83
2022/08/27 12:50:18;;;;;;;9.73;5.10;;;20.10;99.90;;;;;;4975534;28;20187;-85
2022/08/27 12:53:08;;;;;;;11.73;5.15;;;20.10;99.90;;;;;;4994161;28;20258;-86
2022/08/27 12:56:10;;;;;;;9.23;4.85;;;20.10;99.90;;;;;;4975791;28;20195;-86
2022/08/27 12:59:08;;;;;;;13.15;5.13;;;20.20;99.90;;;;;;4993655;28;20266;-86
2022/08/27 13:01:40;;;;;;;12.93;4.72;;;20.30;99.90;;;;;;4975480;28;20187;-86
2022/08/27 13:04:19;;;;;;;9.82;4.05;;;20.30;99.90;;;;;;4976328;28;20184;-87